Time;durP1;ratioP1;P1;durP2;ratioP2;P2;SDS_P1;SDS_P2;PMS_P1;PMS_P2;Temp;Humidity;BMP_temperature;BMP_pressure;BME280_temperature;BME280_humidity;BME280_pressure;Samples;Min_cycle;Max_cycle;Signal;HPM_P1;HPM_P2
2021/12/21 00:00:12;;;;;;;17.73;7.17;;;1.40;92.50;;;;;;5033366;28;20025;-75
2021/12/21 00:02:49;;;;;;;26.60;7.03;;;1.40;92.50;;;;;;5015551;28;20029;-75
2021/12/21 00:05:19;;;;;;;18.37;7.77;;;1.40;92.50;;;;;;5015634;28;20501;-75
2021/12/21 00:07:47;;;;;;;16.73;6.37;;;1.40;92.60;;;;;;5015502;28;20029;-75
2021/12/21 00:10:14;;;;;;;20.43;6.30;;;1.40;92.60;;;;;;4999460;28;20030;-75
2021/12/21 00:12:50;;;;;;;19.33;7.20;;;1.40;92.70;;;;;;5015545;28;20025;-75
2021/12/21 00:15:24;;;;;;;19.17;6.40;;;1.30;92.70;;;;;;5033129;28;20021;-75
2021/12/21 00:18:02;;;;;;;;;;;1.30;92.70;;;;;;5033484;28;20029;-75
2021/12/21 00:20:34;;;;;;;19.50;6.40;;;1.30;92.70;;;;;;5017361;28;19909;-75
2021/12/21 00:25:45;;;;;;;19.63;5.82;;;1.30;92.70;;;;;;5033390;28;20092;-75
2021/12/21 00:28:10;;;;;;;18.77;6.63;;;1.30;92.70;;;;;;5033017;28;20029;-75
2021/12/21 00:30:36;;;;;;;15.87;6.50;;;1.20;92.70;;;;;;5032529;28;20050;-75
2021/12/21 00:33:02;;;;;;;18.47;6.90;;;1.20;92.80;;;;;;5015305;28;20045;-75
2021/12/21 00:35:28;;;;;;;15.70;6.70;;;1.20;92.80;;;;;;5032936;28;20033;-75
2021/12/21 00:37:54;;;;;;;15.83;6.20;;;1.10;92.80;;;;;;5016301;28;20021;-75
2021/12/21 00:40:19;;;;;;;16.57;6.87;;;1.10;92.90;;;;;;5019268;28;20554;-75
2021/12/21 00:42:45;;;;;;;20.27;7.10;;;1.10;92.90;;;;;;5037027;28;20048;-75
2021/12/21 00:45:11;;;;;;;20.37;6.57;;;1.10;93.00;;;;;;5019152;28;20026;-75
2021/12/21 00:47:40;;;;;;;18.17;6.83;;;1.10;93.00;;;;;;5018969;28;20034;-75
2021/12/21 00:50:08;;;;;;;21.37;6.40;;;1.00;93.10;;;;;;5036859;28;20054;-75
2021/12/21 00:52:34;;;;;;;17.93;7.07;;;1.00;93.10;;;;;;5019386;28;20491;-75
2021/12/21 00:55:00;;;;;;;18.03;6.73;;;1.00;93.10;;;;;;5018972;28;20041;-74
2021/12/21 00:57:25;;;;;;;16.57;6.67;;;1.00;93.20;;;;;;5019265;28;20075;-75
2021/12/21 00:59:51;;;;;;;17.53;7.03;;;1.00;93.20;;;;;;5036761;28;20112;-74
2021/12/21 01:02:17;;;;;;;21.00;7.80;;;1.00;93.20;;;;;;5018739;28;20040;-74
2021/12/21 01:04:47;;;;;;;15.10;5.80;;;0.90;93.20;;;;;;5036725;28;20037;-74
2021/12/21 01:10:12;;;;;;;16.90;6.67;;;0.90;93.20;;;;;;5019037;28;20053;-74
2021/12/21 01:12:43;;;;;;;;;;;0.80;93.20;;;;;;5023332;28;20033;-74
2021/12/21 01:17:52;;;;;;;15.83;6.17;;;0.80;93.20;;;;;;5036341;28;20030;-74
2021/12/21 01:20:31;;;;;;;15.90;5.73;;;0.80;93.20;;;;;;5004279;28;20120;-74
2021/12/21 01:25:55;;;;;;;17.07;5.77;;;0.90;93.40;;;;;;5036153;28;20061;-74
2021/12/21 01:28:33;;;;;;;20.00;6.45;;;0.70;93.40;;;;;;5036034;28;20025;-74
2021/12/21 01:36:19;;;;;;;13.43;5.10;;;0.70;93.50;;;;;;5036219;28;20040;-74
2021/12/21 01:39:13;;;;;;;13.63;6.23;;;0.70;93.50;;;;;;5036107;28;20064;-74
2021/12/21 01:41:52;;;;;;;15.27;5.33;;;0.70;93.60;;;;;;5018046;28;20010;-74
2021/12/21 01:44:48;;;;;;;19.10;6.67;;;0.60;93.60;;;;;;5035841;28;20029;-74
2021/12/21 01:49:54;;;;;;;;;;;0.60;93.70;;;;;;5035856;28;20080;-74
2021/12/21 01:52:23;;;;;;;15.67;6.57;;;0.50;93.80;;;;;;5035753;28;19904;-74
2021/12/21 01:54:51;;;;;;;16.80;6.87;;;0.50;93.70;;;;;;5035650;28;20029;-74
2021/12/21 01:57:16;;;;;;;18.10;7.93;;;0.50;93.80;;;;;;5035562;28;20082;-74
2021/12/21 01:59:45;;;;;;;14.90;6.93;;;0.50;93.80;;;;;;5001680;28;20112;-74
2021/12/21 02:02:13;;;;;;;17.33;6.40;;;0.50;93.90;;;;;;5017688;28;20521;-74
2021/12/21 02:04:41;;;;;;;19.93;6.73;;;0.50;93.90;;;;;;5017723;28;20510;-74
2021/12/21 02:07:08;;;;;;;17.10;6.87;;;0.50;94.00;;;;;;5035306;28;20516;-74
2021/12/21 02:09:38;;;;;;;16.63;6.83;;;0.50;94.00;;;;;;5035287;28;20032;-74
2021/12/21 02:12:14;;;;;;;18.03;6.97;;;0.40;94.10;;;;;;5017045;28;20107;-74
2021/12/21 02:14:41;;;;;;;16.53;6.97;;;0.40;94.10;;;;;;5017593;28;20080;-75
2021/12/21 02:22:47;;;;;;;15.40;6.90;;;0.40;94.30;;;;;;5014005;28;20080;-75
2021/12/21 02:25:38;;;;;;;16.30;7.10;;;0.40;94.30;;;;;;5020259;28;20112;-75
2021/12/21 02:30:49;;;;;;;17.47;7.40;;;0.30;94.40;;;;;;5014525;28;20083;-75
2021/12/21 02:33:15;;;;;;;17.47;7.13;;;0.30;94.40;;;;;;5015155;28;20435;-75
2021/12/21 02:35:42;;;;;;;17.30;7.90;;;0.30;94.50;;;;;;5015032;28;20053;-75
2021/12/21 02:38:08;;;;;;;16.50;7.43;;;0.30;94.50;;;;;;5015089;28;20038;-75
2021/12/21 02:40:35;;;;;;;20.43;7.53;;;0.30;94.60;;;;;;4997410;28;20022;-75
2021/12/21 02:43:01;;;;;;;18.03;7.67;;;0.30;94.60;;;;;;4997413;28;20471;-75
2021/12/21 02:45:27;;;;;;;17.63;6.90;;;0.30;94.60;;;;;;4997357;28;20165;-75
2021/12/21 02:47:52;;;;;;;15.60;6.67;;;0.30;94.70;;;;;;5014750;28;20026;-75
2021/12/21 02:50:18;;;;;;;19.93;8.10;;;0.30;94.70;;;;;;4997270;28;20022;-75
2021/12/21 02:52:46;;;;;;;17.13;7.60;;;0.20;94.70;;;;;;4997207;28;20022;-75
2021/12/21 02:55:14;;;;;;;16.00;7.53;;;0.20;94.80;;;;;;4981280;28;20025;-75
2021/12/21 02:57:40;;;;;;;17.17;6.80;;;0.20;94.80;;;;;;5014734;28;20030;-75
2021/12/21 03:00:08;;;;;;;18.13;7.23;;;0.20;94.80;;;;;;4980250;28;20034;-75
2021/12/21 03:02:34;;;;;;;23.07;7.93;;;0.20;94.80;;;;;;5014626;28;20501;-75
2021/12/21 03:05:00;;;;;;;17.20;7.90;;;0.20;94.90;;;;;;5014574;28;20097;-75
2021/12/21 03:10:00;;;;;;;21.07;9.03;;;0.20;94.90;;;;;;5014393;28;20029;-75
2021/12/21 03:15:11;;;;;;;18.33;8.10;;;0.10;95.00;;;;;;5014728;28;20092;-75
2021/12/21 03:17:37;;;;;;;20.07;8.13;;;0.10;95.00;;;;;;4980705;28;20029;-75
2021/12/21 03:20:03;;;;;;;22.00;7.57;;;0.10;95.10;;;;;;4996674;28;20486;-75
2021/12/21 03:22:28;;;;;;;19.00;8.17;;;0.10;95.10;;;;;;5014110;28;20398;-75
2021/12/21 03:24:54;;;;;;;17.93;7.17;;;0.10;95.10;;;;;;5014225;28;20030;-75
2021/12/21 03:27:20;;;;;;;17.57;7.40;;;0.10;95.10;;;;;;5014100;28;20026;-75
2021/12/21 03:29:46;;;;;;;23.63;8.23;;;0.10;95.20;;;;;;5014202;28;20030;-75
2021/12/21 03:32:11;;;;;;;20.47;7.47;;;0.10;95.20;;;;;;5013860;28;20042;-75
2021/12/21 03:34:37;;;;;;;17.63;6.87;;;0.10;95.10;;;;;;4996463;28;20458;-75
2021/12/21 03:37:09;;;;;;;18.13;7.40;;;0.10;95.20;;;;;;4980227;28;20026;-75
2021/12/21 03:39:35;;;;;;;17.07;8.20;;;0.00;95.20;;;;;;4996254;28;20030;-75
2021/12/21 03:42:01;;;;;;;18.60;8.30;;;0.00;95.20;;;;;;4996195;28;20024;-75
2021/12/21 03:44:27;;;;;;;21.90;8.53;;;0.00;95.20;;;;;;5014126;28;20104;-75
2021/12/21 03:46:55;;;;;;;14.57;6.93;;;0.00;95.30;;;;;;4996413;28;20032;-74
2021/12/21 03:51:49;;;;;;;15.27;7.13;;;0.00;95.30;;;;;;5013776;28;20145;-74
2021/12/21 03:54:15;;;;;;;21.17;7.60;;;0.00;95.40;;;;;;4996178;28;20041;-74
2021/12/21 03:56:42;;;;;;;18.07;7.73;;;-0.10;95.40;;;;;;5013626;28;20034;-74
2021/12/21 03:59:08;;;;;;;17.27;7.83;;;0.00;95.40;;;;;;4980013;28;20030;-74
2021/12/21 04:01:34;;;;;;;18.87;8.80;;;0.00;95.50;;;;;;4996256;28;20022;-74
2021/12/21 04:04:00;;;;;;;15.93;8.07;;;0.00;95.50;;;;;;4996043;28;20026;-74
2021/12/21 04:06:25;;;;;;;18.93;7.83;;;-0.10;95.50;;;;;;4996056;28;20104;-74
2021/12/21 04:08:51;;;;;;;24.50;8.13;;;-0.10;95.50;;;;;;5013513;28;20129;-74
2021/12/21 04:11:17;;;;;;;18.77;8.70;;;-0.10;95.90;;;;;;4995904;28;20053;-74
2021/12/21 04:13:42;;;;;;;22.53;10.60;;;-0.10;95.60;;;;;;4995843;28;20026;-75
2021/12/21 04:16:08;;;;;;;19.80;9.00;;;-0.10;95.70;;;;;;4996006;28;20026;-75
2021/12/21 04:18:36;;;;;;;20.60;9.17;;;-0.10;95.70;;;;;;4995964;28;20034;-74
2021/12/21 04:21:04;;;;;;;22.27;8.93;;;-0.10;95.70;;;;;;4979993;28;20030;-74
2021/12/21 04:23:30;;;;;;;21.07;9.23;;;-0.10;96.00;;;;;;5013400;28;20489;-74
2021/12/21 04:25:55;;;;;;;18.80;8.90;;;-0.10;95.80;;;;;;4979675;28;20117;-74
2021/12/21 04:28:21;;;;;;;16.70;8.87;;;-0.10;95.80;;;;;;5013218;28;20494;-74
2021/12/21 04:30:47;;;;;;;21.57;8.73;;;-0.10;95.80;;;;;;4995686;28;20225;-74
2021/12/21 04:33:12;;;;;;;21.63;9.43;;;-0.10;95.80;;;;;;5013333;28;20037;-74
2021/12/21 04:35:38;;;;;;;21.53;9.07;;;-0.10;95.90;;;;;;4995703;28;20030;-74
2021/12/21 04:38:24;;;;;;;18.90;9.20;;;-0.10;95.90;;;;;;4995738;28;20056;-74
2021/12/21 04:40:57;;;;;;;24.00;10.23;;;-0.10;95.90;;;;;;5013171;28;20037;-74
2021/12/21 04:43:23;;;;;;;26.70;9.93;;;-0.10;96.00;;;;;;5013449;28;20028;-74
2021/12/21 04:45:49;;;;;;;25.53;11.10;;;-0.10;96.00;;;;;;5011605;28;20029;-74
2021/12/21 04:48:15;;;;;;;21.70;9.63;;;-0.10;96.00;;;;;;4978665;28;20149;-75
2021/12/21 04:50:42;;;;;;;22.87;10.37;;;-0.10;96.00;;;;;;5013107;28;20033;-75
2021/12/21 04:53:08;;;;;;;21.40;9.57;;;-0.10;96.00;;;;;;4979554;28;20297;-75
2021/12/21 04:55:33;;;;;;;22.53;8.90;;;-0.10;96.00;;;;;;4979487;28;20033;-75
2021/12/21 04:57:59;;;;;;;23.33;11.07;;;-0.10;96.00;;;;;;4995041;28;20489;-75
2021/12/21 05:00:25;;;;;;;22.30;10.00;;;-0.10;96.00;;;;;;4994486;28;20085;-75
2021/12/21 05:02:51;;;;;;;25.03;10.87;;;-0.10;96.30;;;;;;4994492;28;20489;-75
2021/12/21 05:05:17;;;;;;;21.57;10.23;;;-0.10;96.10;;;;;;4993890;28;20390;-75
2021/12/21 05:07:47;;;;;;;22.30;10.70;;;-0.20;96.00;;;;;;4979097;28;20436;-75
2021/12/21 05:10:13;;;;;;;23.20;10.33;;;-0.20;96.00;;;;;;5013012;28;20022;-75
2021/12/21 05:12:39;;;;;;;22.20;10.37;;;-0.20;96.10;;;;;;5012508;28;20026;-75
2021/12/21 05:15:06;;;;;;;22.03;10.90;;;-0.20;96.10;;;;;;5012375;28;20033;-75
2021/12/21 05:17:33;;;;;;;27.53;11.50;;;-0.30;96.10;;;;;;4995483;28;20033;-75
2021/12/21 05:19:59;;;;;;;22.67;10.67;;;-0.30;96.10;;;;;;5012764;28;20022;-75
2021/12/21 05:22:26;;;;;;;24.70;10.97;;;-0.30;96.10;;;;;;5013028;28;20030;-75
2021/12/21 05:24:52;;;;;;;21.27;11.50;;;-0.30;96.10;;;;;;5015313;28;20029;-74
2021/12/21 05:27:18;;;;;;;22.07;11.33;;;-0.30;96.10;;;;;;5016344;28;20093;-74
2021/12/21 05:29:44;;;;;;;19.63;11.00;;;-0.30;96.10;;;;;;5014990;28;20022;-75
2021/12/21 05:32:09;;;;;;;24.13;11.37;;;-0.30;96.20;;;;;;4998604;28;20137;-75
2021/12/21 05:34:35;;;;;;;24.33;11.67;;;-0.30;96.20;;;;;;4998659;28;20022;-75
2021/12/21 05:37:05;;;;;;;26.20;12.20;;;-0.40;96.20;;;;;;4998858;28;20492;-75
2021/12/21 05:39:39;;;;;;;22.60;11.83;;;-0.30;96.60;;;;;;4999293;28;20022;-75
2021/12/21 05:42:06;;;;;;;26.57;12.07;;;-0.30;96.40;;;;;;4999525;28;20117;-75
2021/12/21 05:44:32;;;;;;;22.87;12.03;;;-0.30;96.40;;;;;;5014826;28;20037;-75
2021/12/21 05:46:58;;;;;;;23.37;11.60;;;-0.30;96.40;;;;;;4998433;28;20026;-75
2021/12/21 05:49:24;;;;;;;26.83;12.50;;;-0.20;96.40;;;;;;5015937;28;20026;-75
2021/12/21 05:51:50;;;;;;;22.63;12.13;;;-0.30;96.30;;;;;;5015889;28;20025;-75
2021/12/21 05:54:21;;;;;;;23.63;10.97;;;-0.30;96.30;;;;;;5015898;28;20037;-75
2021/12/21 05:56:47;;;;;;;23.77;11.33;;;-0.30;96.40;;;;;;5015853;28;20065;-75
2021/12/21 05:59:13;;;;;;;25.20;11.00;;;-0.30;96.40;;;;;;5015843;28;20049;-75
2021/12/21 06:01:39;;;;;;;29.03;14.07;;;-0.30;96.30;;;;;;4982163;28;20111;-75
2021/12/21 06:04:05;;;;;;;22.33;11.97;;;-0.30;96.30;;;;;;5015710;28;20080;-75
2021/12/21 06:06:32;;;;;;;27.83;12.73;;;-0.40;96.30;;;;;;4998046;28;20022;-75
2021/12/21 06:09:00;;;;;;;26.13;11.77;;;-0.30;96.40;;;;;;5015610;28;20030;-75
2021/12/21 06:11:26;;;;;;;25.77;12.03;;;-0.30;96.40;;;;;;4998273;28;20049;-74
2021/12/21 06:27:18;;;;;;;;;;;-0.40;96.30;;;;;;5001225;28;20121;-75
2021/12/21 06:29:44;;;;;;;23.97;10.97;;;-0.40;96.30;;;;;;4997714;28;19956;-75
2021/12/21 06:32:10;;;;;;;19.03;10.73;;;-0.50;96.20;;;;;;4997432;28;20042;-75
2021/12/21 06:34:36;;;;;;;24.53;10.97;;;-0.50;96.30;;;;;;5014952;28;20026;-74
2021/12/21 06:37:02;;;;;;;26.10;11.67;;;-0.50;96.30;;;;;;5006170;28;20014;-75
2021/12/21 06:39:28;;;;;;;24.07;12.67;;;-0.50;96.30;;;;;;5014931;28;20390;-75
2021/12/21 06:41:54;;;;;;;25.40;12.40;;;-0.50;96.40;;;;;;5023197;28;20127;-75
2021/12/21 06:44:20;;;;;;;24.27;11.90;;;-0.50;96.40;;;;;;5017096;28;20485;-75
2021/12/21 06:47:04;;;;;;;30.23;13.13;;;-0.50;96.50;;;;;;5010813;28;20381;-75
2021/12/21 06:52:15;;;;;;;28.10;12.77;;;-0.50;96.50;;;;;;5011729;28;20524;-75
2021/12/21 06:54:41;;;;;;;25.37;13.20;;;-0.50;96.60;;;;;;4994447;28;20049;-75
2021/12/21 06:57:06;;;;;;;28.00;12.87;;;-0.50;96.60;;;;;;4985640;28;20091;-75
2021/12/21 06:59:32;;;;;;;26.70;12.67;;;-0.40;96.60;;;;;;5002595;28;20108;-75
2021/12/21 07:01:58;;;;;;;30.40;13.37;;;-0.40;96.60;;;;;;5026043;28;20475;-75
2021/12/21 07:04:24;;;;;;;29.33;12.97;;;-0.50;96.60;;;;;;5015242;28;20041;-75
2021/12/21 07:06:52;;;;;;;30.10;14.00;;;-0.50;96.60;;;;;;5033179;28;20025;-75
2021/12/21 07:20:20;;;;;;;25.60;11.10;;;-0.40;96.80;;;;;;5019032;28;20040;-75
2021/12/21 07:22:45;;;;;;;24.53;12.77;;;-0.40;96.80;;;;;;5016089;28;20029;-76
2021/12/21 07:25:11;;;;;;;24.93;11.97;;;-0.40;96.70;;;;;;5016211;28;20040;-74
2021/12/21 07:27:37;;;;;;;23.37;12.73;;;-0.40;96.70;;;;;;5022137;28;20050;-75
2021/12/21 07:30:05;;;;;;;28.80;14.27;;;-0.30;96.70;;;;;;5000647;28;20034;-75
2021/12/21 07:32:31;;;;;;;24.77;12.67;;;-0.40;96.70;;;;;;4996005;28;20120;-75
2021/12/21 07:34:58;;;;;;;26.57;13.10;;;-0.40;96.70;;;;;;4980183;28;20041;-75
2021/12/21 07:37:25;;;;;;;27.70;13.10;;;-0.40;96.80;;;;;;4996274;28;20413;-75
2021/12/21 07:39:51;;;;;;;31.57;14.77;;;-0.40;96.80;;;;;;5013953;28;20034;-73
2021/12/21 07:42:18;;;;;;;30.27;13.40;;;-0.40;96.90;;;;;;4996125;28;20113;-73
2021/12/21 07:44:43;;;;;;;26.33;13.27;;;-0.40;96.90;;;;;;5007502;28;20478;-73
2021/12/21 07:47:09;;;;;;;28.43;14.40;;;-0.40;96.90;;;;;;5032353;28;20036;-73
2021/12/21 07:49:35;;;;;;;26.43;14.63;;;-0.40;96.90;;;;;;4992800;28;20042;-73
2021/12/21 07:52:01;;;;;;;27.80;14.73;;;-0.30;96.90;;;;;;5005822;28;20425;-74
2021/12/21 07:54:27;;;;;;;25.20;13.00;;;-0.40;96.90;;;;;;5023677;28;20049;-74
2021/12/21 07:56:52;;;;;;;23.83;13.17;;;-0.30;96.80;;;;;;5004503;28;20061;-73
2021/12/21 07:59:19;;;;;;;28.03;13.10;;;-0.40;96.80;;;;;;5024790;28;20478;-73
2021/12/21 08:01:45;;;;;;;23.00;13.27;;;-0.40;96.90;;;;;;5015390;28;20547;-72
2021/12/21 08:04:11;;;;;;;27.63;13.87;;;-0.40;96.90;;;;;;5033213;28;20025;-74
2021/12/21 08:06:38;;;;;;;30.07;13.57;;;-0.40;96.90;;;;;;5033165;28;20034;-73
2021/12/21 08:09:05;;;;;;;30.63;13.57;;;-0.40;97.00;;;;;;5033164;28;20083;-73
2021/12/21 08:14:01;;;;;;;25.37;13.73;;;-0.30;97.10;;;;;;5033373;28;20029;-73
2021/12/21 08:16:27;;;;;;;25.53;13.00;;;-0.30;97.20;;;;;;5015540;28;20034;-73
2021/12/21 08:18:53;;;;;;;26.97;14.67;;;-0.30;97.20;;;;;;4999137;28;20095;-74
2021/12/21 08:21:19;;;;;;;28.30;14.17;;;-0.30;97.20;;;;;;5033071;28;20030;-73
2021/12/21 08:23:46;;;;;;;28.77;14.17;;;-0.20;97.20;;;;;;4999047;28;20350;-73
2021/12/21 08:26:12;;;;;;;30.10;15.40;;;-0.20;97.20;;;;;;5033041;28;20394;-73
2021/12/21 08:28:38;;;;;;;30.43;14.87;;;-0.20;97.20;;;;;;5015221;28;20083;-74
2021/12/21 08:31:04;;;;;;;27.67;13.43;;;-0.20;97.20;;;;;;5015249;28;20508;-73
2021/12/21 08:33:30;;;;;;;29.07;14.60;;;-0.10;97.30;;;;;;4998747;28;20046;-73
2021/12/21 08:35:56;;;;;;;29.70;13.40;;;-0.10;97.30;;;;;;5012842;28;20025;-73
2021/12/21 08:38:21;;;;;;;29.20;14.17;;;-0.10;97.30;;;;;;5003462;28;20496;-73
2021/12/21 08:40:49;;;;;;;29.33;13.20;;;0.00;97.30;;;;;;5005821;28;20486;-72
2021/12/21 08:43:19;;;;;;;23.90;13.50;;;0.00;97.30;;;;;;5022373;28;20470;-72
2021/12/21 08:45:47;;;;;;;31.03;14.07;;;0.00;97.30;;;;;;4995383;28;20038;-73
2021/12/21 08:48:14;;;;;;;26.67;14.30;;;0.00;97.40;;;;;;4995384;28;20097;-73
2021/12/21 08:50:40;;;;;;;27.23;14.77;;;0.10;97.40;;;;;;5015588;28;20029;-73
2021/12/21 08:53:06;;;;;;;26.83;13.77;;;0.10;97.40;;;;;;5008214;28;20014;-73
2021/12/21 08:55:32;;;;;;;33.33;14.10;;;0.20;97.50;;;;;;5032692;28;20355;-73
2021/12/21 08:57:58;;;;;;;27.20;14.37;;;0.20;97.60;;;;;;5033053;28;20040;-74
2021/12/21 09:00:24;;;;;;;29.73;14.67;;;0.30;97.60;;;;;;5036368;28;20100;-73
2021/12/21 09:02:50;;;;;;;27.50;14.57;;;0.30;97.60;;;;;;5036690;28;20026;-73
2021/12/21 09:05:20;;;;;;;29.90;14.83;;;0.40;97.70;;;;;;5036822;28;20030;-73
2021/12/21 09:07:47;;;;;;;30.33;16.13;;;0.40;97.70;;;;;;5036402;28;20025;-73
2021/12/21 09:10:15;;;;;;;31.30;15.17;;;0.50;97.70;;;;;;5036400;28;20029;-73
2021/12/21 09:12:41;;;;;;;30.33;15.40;;;0.50;97.80;;;;;;5036320;28;20110;-73
2021/12/21 09:15:08;;;;;;;30.20;15.93;;;0.50;97.80;;;;;;5018623;28;20029;-74
2021/12/21 09:17:34;;;;;;;35.33;16.53;;;0.60;97.80;;;;;;5036413;28;20037;-73
2021/12/21 09:20:00;;;;;;;36.33;17.47;;;0.70;97.80;;;;;;5036307;28;20034;-73
2021/12/21 09:22:26;;;;;;;32.17;16.57;;;0.70;97.90;;;;;;5018103;28;20116;-73
2021/12/21 09:24:51;;;;;;;29.20;16.37;;;0.80;98.00;;;;;;5002214;28;20025;-72
2021/12/21 09:27:18;;;;;;;32.67;17.13;;;1.00;98.20;;;;;;5018389;28;20033;-72
2021/12/21 09:29:45;;;;;;;29.60;16.03;;;1.10;98.30;;;;;;5035768;28;20087;-72
2021/12/21 09:32:13;;;;;;;30.33;16.10;;;1.30;98.40;;;;;;4998683;28;20445;-72
2021/12/21 09:34:40;;;;;;;30.83;15.40;;;1.70;98.60;;;;;;5025410;28;20028;-72
2021/12/21 09:37:07;;;;;;;28.23;15.10;;;2.00;98.90;;;;;;5016212;28;20045;-72
2021/12/21 09:39:32;;;;;;;23.67;13.37;;;2.50;99.30;;;;;;5003426;28;20512;-72
2021/12/21 09:41:58;;;;;;;21.57;12.83;;;3.00;99.80;;;;;;5007002;28;20113;-72
2021/12/21 09:44:24;;;;;;;25.23;12.60;;;3.50;99.90;;;;;;5018065;28;20410;-72
2021/12/21 09:46:50;;;;;;;18.93;11.67;;;4.10;99.90;;;;;;5008819;28;20026;-73
2021/12/21 09:49:16;;;;;;;24.57;11.57;;;4.70;99.90;;;;;;4999199;28;20451;-73
2021/12/21 09:51:41;;;;;;;24.43;12.30;;;5.30;99.90;;;;;;5015923;28;20037;-73
2021/12/21 09:54:08;;;;;;;19.60;11.50;;;6.00;99.90;;;;;;5015798;28;20038;-73
2021/12/21 09:56:34;;;;;;;17.45;10.95;;;6.60;99.90;;;;;;5015766;28;20130;-73
2021/12/21 09:59:01;;;;;;;19.98;10.45;;;7.10;99.90;;;;;;5015936;28;20034;-73
2021/12/21 10:01:27;;;;;;;20.02;10.68;;;7.70;99.90;;;;;;4998076;28;20494;-73
2021/12/21 10:03:52;;;;;;;16.33;10.23;;;8.40;99.90;;;;;;5015617;28;20036;-75
2021/12/21 10:06:18;;;;;;;18.85;10.30;;;9.00;99.90;;;;;;5015516;28;20030;-73
2021/12/21 10:08:44;;;;;;;15.50;9.68;;;9.70;99.40;;;;;;4998043;28;20576;-74
2021/12/21 10:11:19;;;;;;;16.10;9.30;;;10.20;98.20;;;;;;4997625;28;20033;-73
2021/12/21 10:13:45;;;;;;;19.33;11.10;;;10.60;96.70;;;;;;5015507;28;20391;-73
2021/12/21 10:16:10;;;;;;;16.92;10.35;;;11.10;96.00;;;;;;5000173;28;20026;-73
2021/12/21 10:18:41;;;;;;;16.90;10.65;;;11.60;94.60;;;;;;5032687;28;20029;-73
2021/12/21 10:21:10;;;;;;;17.23;9.75;;;12.00;93.00;;;;;;5035387;28;20474;-73
2021/12/21 10:23:40;;;;;;;17.58;9.82;;;12.40;91.70;;;;;;5025385;28;20032;-73
2021/12/21 10:26:12;;;;;;;17.45;10.45;;;12.70;90.50;;;;;;5015296;28;20030;-74
2021/12/21 10:28:49;;;;;;;19.08;10.57;;;12.80;88.00;;;;;;5014317;28;20044;-73
2021/12/21 10:31:36;;;;;;;17.30;9.85;;;12.90;85.70;;;;;;5034839;28;20036;-73
2021/12/21 10:34:04;;;;;;;16.20;10.35;;;12.90;82.50;;;;;;5034884;28;20042;-73
2021/12/21 10:36:30;;;;;;;14.45;9.60;;;12.90;81.80;;;;;;5033610;28;20385;-73
2021/12/21 10:39:01;;;;;;;16.73;10.05;;;12.90;79.60;;;;;;5017262;28;20112;-73
2021/12/21 10:41:33;;;;;;;15.45;9.40;;;12.80;77.40;;;;;;5013705;28;20421;-73
2021/12/21 10:44:15;;;;;;;15.57;9.65;;;12.60;76.00;;;;;;5032127;28;20087;-73
2021/12/21 10:46:48;;;;;;;16.98;9.98;;;12.40;74.80;;;;;;5034827;28;20026;-72
2021/12/21 10:49:16;;;;;;;17.63;10.35;;;12.50;74.00;;;;;;5035308;28;20521;-73
2021/12/21 10:52:04;;;;;;;14.27;9.00;;;12.50;73.10;;;;;;5034809;28;20021;-73
2021/12/21 10:54:36;;;;;;;14.15;8.02;;;12.60;72.00;;;;;;5034910;28;20021;-72
2021/12/21 10:57:05;;;;;;;14.95;9.77;;;12.90;72.10;;;;;;5034679;28;20025;-73
2021/12/21 10:59:33;;;;;;;14.23;8.27;;;13.30;71.70;;;;;;5034671;28;20026;-72
2021/12/21 11:02:11;;;;;;;15.00;9.20;;;13.70;71.60;;;;;;5034757;28;20079;-74
2021/12/21 11:04:42;;;;;;;18.38;10.00;;;13.90;69.20;;;;;;5017101;28;20025;-73
2021/12/21 11:07:33;;;;;;;15.60;8.48;;;14.20;68.70;;;;;;5034362;28;20026;-73
2021/12/21 11:10:11;;;;;;;13.98;8.40;;;14.20;67.60;;;;;;5034519;28;20025;-73
2021/12/21 11:12:52;;;;;;;16.00;9.80;;;14.30;67.20;;;;;;5034643;28;20036;-74
2021/12/21 11:15:28;;;;;;;18.02;9.65;;;14.40;65.30;;;;;;5016956;28;20030;-73
2021/12/21 11:17:55;;;;;;;14.15;8.82;;;14.30;64.50;;;;;;5034692;28;20026;-73
2021/12/21 11:20:20;;;;;;;20.80;9.73;;;14.20;63.60;;;;;;5034571;28;20116;-73
2021/12/21 11:22:46;;;;;;;14.75;8.82;;;14.20;63.00;;;;;;5033626;28;20112;-74
2021/12/21 11:25:13;;;;;;;15.45;9.18;;;14.00;62.50;;;;;;5000033;28;20033;-73
2021/12/21 11:27:42;;;;;;;18.38;8.70;;;14.00;62.10;;;;;;4994380;28;20040;-74
2021/12/21 11:30:14;;;;;;;15.15;9.25;;;14.00;61.70;;;;;;5024601;28;20072;-74
2021/12/21 11:32:49;;;;;;;15.93;8.38;;;14.00;60.80;;;;;;5019298;28;20072;-74
2021/12/21 11:37:48;;;;;;;14.73;9.27;;;13.90;60.80;;;;;;5014402;28;20041;-73
2021/12/21 11:40:19;;;;;;;14.65;9.23;;;13.90;60.10;;;;;;5014204;28;20018;-73
2021/12/21 11:42:51;;;;;;;14.40;9.35;;;13.80;59.40;;;;;;5006678;28;20100;-73
2021/12/21 11:45:51;;;;;;;16.33;9.63;;;13.90;58.40;;;;;;5016080;28;20026;-73
2021/12/21 11:48:28;;;;;;;14.80;8.98;;;13.90;57.60;;;;;;5011559;28;20055;-72
2021/12/21 11:51:09;;;;;;;13.00;7.57;;;14.00;58.30;;;;;;5032881;28;20025;-72
2021/12/21 11:53:36;;;;;;;15.45;7.88;;;14.30;58.10;;;;;;5009373;28;20034;-73
2021/12/21 11:56:03;;;;;;;12.07;6.18;;;14.70;58.60;;;;;;5016862;28;20037;-76
2021/12/21 11:58:39;;;;;;;10.98;6.53;;;15.00;58.20;;;;;;4996440;28;20076;-77
2021/12/21 12:01:07;;;;;;;11.98;7.13;;;15.20;58.10;;;;;;5014207;28;20014;-76
2021/12/21 12:03:39;;;;;;;10.40;6.15;;;15.30;58.10;;;;;;4995853;28;20030;-76
2021/12/21 12:06:07;;;;;;;10.77;6.03;;;15.40;57.50;;;;;;5014141;28;20021;-76
2021/12/21 12:08:59;;;;;;;11.95;6.93;;;15.50;56.90;;;;;;4995719;28;20052;-76
2021/12/21 12:11:35;;;;;;;11.60;6.90;;;15.70;55.60;;;;;;5013670;28;20080;-76
2021/12/21 12:14:08;;;;;;;13.25;6.68;;;16.10;55.80;;;;;;5013652;28;20445;-76
2021/12/21 12:16:51;;;;;;;14.07;6.90;;;16.50;54.90;;;;;;5013919;28;20080;-76
2021/12/21 12:19:27;;;;;;;11.82;5.80;;;17.00;54.60;;;;;;5013579;28;20034;-76
2021/12/21 12:22:07;;;;;;;8.40;5.00;;;17.50;54.70;;;;;;5013406;28;20143;-76
2021/12/21 12:24:41;;;;;;;10.30;5.05;;;17.90;53.30;;;;;;5011529;28;20025;-76
2021/12/21 12:27:11;;;;;;;10.77;4.75;;;18.40;52.90;;;;;;5013322;28;20076;-76
2021/12/21 12:29:52;;;;;;;8.93;4.82;;;18.80;52.20;;;;;;5013107;28;20021;-76
2021/12/21 12:32:34;;;;;;;8.65;4.78;;;19.20;50.30;;;;;;5008558;28;20046;-76
2021/12/21 12:35:08;;;;;;;9.95;4.88;;;19.40;49.30;;;;;;4998136;28;20019;-76
2021/12/21 12:38:01;;;;;;;9.10;4.40;;;19.70;49.20;;;;;;4997766;28;20035;-76
2021/12/21 12:40:34;;;;;;;8.68;4.32;;;20.10;48.20;;;;;;4997661;28;20022;-77
2021/12/21 12:43:27;;;;;;;8.40;4.00;;;20.40;47.70;;;;;;4997655;28;20026;-77
2021/12/21 12:46:01;;;;;;;8.02;4.10;;;20.60;46.70;;;;;;4997676;28;20022;-77
2021/12/21 12:48:41;;;;;;;10.63;4.05;;;20.60;46.70;;;;;;5012564;28;20026;-77
2021/12/21 12:51:09;;;;;;;8.27;3.88;;;20.70;45.20;;;;;;4997396;28;20031;-77
2021/12/21 12:53:44;;;;;;;8.25;4.05;;;20.90;46.00;;;;;;4997443;28;20026;-77
2021/12/21 12:56:14;;;;;;;6.95;3.80;;;21.10;44.40;;;;;;4995920;28;20569;-74
2021/12/21 12:58:52;;;;;;;8.60;4.35;;;21.20;44.10;;;;;;4997406;28;20037;-74
2021/12/21 13:01:24;;;;;;;8.13;3.78;;;21.30;43.20;;;;;;4997390;28;20038;-74
2021/12/21 13:03:53;;;;;;;7.95;4.15;;;21.40;43.50;;;;;;4997248;28;20109;-74
2021/12/21 13:06:28;;;;;;;9.07;4.13;;;21.60;42.90;;;;;;4997227;28;20482;-74
2021/12/21 13:08:54;;;;;;;11.77;4.72;;;21.70;42.30;;;;;;4999113;28;20501;-74
2021/12/21 13:11:30;;;;;;;8.68;4.38;;;21.90;42.30;;;;;;5007902;28;20061;-74
2021/12/21 13:13:57;;;;;;;9.88;4.20;;;22.10;41.70;;;;;;5015345;28;20084;-74
2021/12/21 13:16:26;;;;;;;8.48;4.60;;;22.30;41.40;;;;;;5015772;28;20018;-74
2021/12/21 13:18:57;;;;;;;12.73;5.00;;;22.40;40.40;;;;;;5016796;28;20083;-74
2021/12/21 13:21:27;;;;;;;10.10;4.60;;;22.40;39.70;;;;;;5015489;28;20033;-74
2021/12/21 13:24:09;;;;;;;8.02;4.00;;;22.30;39.40;;;;;;5015457;28;20080;-74
2021/12/21 13:26:52;;;;;;;8.27;3.70;;;22.40;39.30;;;;;;5016751;28;20057;-74
2021/12/21 13:29:21;;;;;;;7.95;4.60;;;22.70;39.00;;;;;;5016739;28;20037;-74
2021/12/21 13:31:52;;;;;;;9.48;4.43;;;22.80;39.10;;;;;;5017775;28;20018;-74
2021/12/21 13:34:19;;;;;;;11.48;4.75;;;22.80;38.80;;;;;;5036617;28;20064;-74
2021/12/21 13:36:48;;;;;;;10.65;5.07;;;22.80;38.50;;;;;;5036376;28;20026;-74
2021/12/21 13:39:19;;;;;;;9.07;4.80;;;22.90;38.40;;;;;;5036147;28;20053;-74
2021/12/21 13:41:51;;;;;;;9.30;5.03;;;23.00;38.00;;;;;;5002264;28;20029;-75
2021/12/21 13:44:36;;;;;;;10.07;5.18;;;23.00;37.70;;;;;;5035275;28;20113;-75
2021/12/21 13:47:24;;;;;;;13.07;5.35;;;22.80;36.90;;;;;;5007738;28;20040;-75
2021/12/21 13:50:12;;;;;;;9.48;4.90;;;22.70;37.40;;;;;;5035779;28;20099;-75
2021/12/21 13:52:52;;;;;;;8.70;4.78;;;22.60;37.10;;;;;;5008684;28;20042;-75
2021/12/21 13:55:20;;;;;;;8.50;4.60;;;22.50;37.10;;;;;;5035941;28;20492;-75